createdAt,value
2022-09-06T00:00:01.734Z,1.17
2022-09-06T00:02:39.825Z,1.30
2022-09-06T00:05:08.231Z,1.67
2022-09-06T00:07:35.607Z,1.40
2022-09-06T00:10:03.281Z,1.40
2022-09-06T00:12:30.649Z,1.75
2022-09-06T00:14:57.807Z,1.63
2022-09-06T00:17:24.950Z,1.63
2022-09-06T00:19:52.030Z,1.30
2022-09-06T00:22:19.029Z,1.60
2022-09-06T00:24:46.020Z,1.42
2022-09-06T00:27:13.059Z,1.15
2022-09-06T00:29:40.368Z,1.05
2022-09-06T00:32:08.575Z,1.80
2022-09-06T00:34:35.602Z,1.05
2022-09-06T00:37:02.568Z,1.40
2022-09-06T00:39:29.586Z,1.80
2022-09-06T00:41:56.574Z,1.88
2022-09-06T00:44:23.656Z,2.03
2022-09-06T00:46:54.336Z,1.85
2022-09-06T00:49:35.114Z,1.70
2022-09-06T00:52:08.223Z,1.70
2022-09-06T00:54:35.699Z,2.00
2022-09-06T00:57:03.139Z,1.80
2022-09-06T00:59:33.659Z,1.77
2022-09-06T01:02:00.728Z,1.90
2022-09-06T01:04:29.289Z,2.22
2022-09-06T01:07:12.978Z,1.75
2022-09-06T01:09:58.323Z,1.80
2022-09-06T01:12:50.400Z,1.73
2022-09-06T01:15:32.231Z,1.95
2022-09-06T01:18:09.288Z,1.90
2022-09-06T01:20:44.890Z,1.73
2022-09-06T01:23:14.690Z,1.60
2022-09-06T01:26:10.827Z,1.80
2022-09-06T01:31:25.890Z,1.90
2022-09-06T01:33:58.697Z,1.67
2022-09-06T01:36:30.591Z,2.22
2022-09-06T01:38:57.644Z,2.20
2022-09-06T01:41:24.653Z,2.28
2022-09-06T01:43:53.958Z,2.40
2022-09-06T01:46:39.596Z,2.03
2022-09-06T01:49:25.487Z,2.08
2022-09-06T01:52:01.478Z,2.55
2022-09-06T01:54:59.745Z,2.33
2022-09-06T01:57:41.810Z,1.60
2022-09-06T02:00:20.006Z,1.75
2022-09-06T02:02:52.996Z,2.10
2022-09-06T02:05:41.563Z,1.73
2022-09-06T02:08:13.410Z,1.63
2022-09-06T02:10:50.058Z,1.90
2022-09-06T02:13:19.492Z,1.80
2022-09-06T02:16:08.456Z,1.73
2022-09-06T02:18:51.561Z,1.80
2022-09-06T02:21:25.251Z,1.60
2022-09-06T02:23:56.020Z,1.80
2022-09-06T02:26:27.656Z,1.70
2022-09-06T02:28:55.477Z,1.67
2022-09-06T02:31:37.768Z,1.83
2022-09-06T02:34:05.853Z,1.67
2022-09-06T02:36:35.735Z,2.00
2022-09-06T02:39:03.223Z,1.90
2022-09-06T02:41:31.224Z,2.42
2022-09-06T02:43:58.394Z,2.90
2022-09-06T02:46:25.497Z,4.10
2022-09-06T02:48:52.484Z,3.10
2022-09-06T02:51:20.775Z,3.80
2022-09-06T02:53:47.814Z,3.33
2022-09-06T02:56:15.065Z,2.90
2022-09-06T02:58:42.170Z,2.70
2022-09-06T03:01:09.378Z,3.88
2022-09-06T03:03:36.446Z,3.00
2022-09-06T03:06:03.599Z,2.13
2022-09-06T03:08:33.706Z,4.15
2022-09-06T03:11:01.448Z,3.60
2022-09-06T03:13:29.082Z,3.78
2022-09-06T03:15:58.712Z,4.60
2022-09-06T03:18:28.481Z,4.97
2022-09-06T03:20:56.532Z,4.38
2022-09-06T03:23:25.987Z,5.43
2022-09-06T03:25:53.753Z,5.30
2022-09-06T03:28:22.105Z,4.82
2022-09-06T03:30:51.749Z,4.90
2022-09-06T03:33:20.355Z,4.85
2022-09-06T03:35:49.701Z,4.57
2022-09-06T03:38:17.615Z,4.80
2022-09-06T03:40:46.742Z,4.63
2022-09-06T03:43:15.639Z,4.05
2022-09-06T03:45:49.048Z,4.00
2022-09-06T03:48:17.280Z,3.95
2022-09-06T03:50:49.423Z,4.88
2022-09-06T03:53:17.650Z,6.03
2022-09-06T03:55:46.932Z,5.80
2022-09-06T03:58:14.681Z,5.22
2022-09-06T04:00:41.683Z,5.50
2022-09-06T04:03:09.064Z,3.90
2022-09-06T04:05:36.117Z,4.15
2022-09-06T04:08:03.539Z,4.70
2022-09-06T04:10:30.474Z,5.03
2022-09-06T04:12:57.453Z,4.95
2022-09-06T04:15:24.406Z,36.47
2022-09-06T04:17:51.409Z,46.40
2022-09-06T04:20:18.438Z,40.83
2022-09-06T04:22:45.507Z,21.52
2022-09-06T04:25:13.915Z,18.40
2022-09-06T04:27:41.006Z,16.17
2022-09-06T04:30:08.661Z,14.93
2022-09-06T04:32:35.677Z,10.63
2022-09-06T04:35:02.694Z,11.10
2022-09-06T04:37:29.688Z,7.72
2022-09-06T04:39:56.672Z,7.13
2022-09-06T04:42:23.693Z,6.25
2022-09-06T04:44:50.702Z,6.47
2022-09-06T04:47:19.353Z,8.50
2022-09-06T04:49:46.613Z,8.05
2022-09-06T04:52:13.589Z,7.93
2022-09-06T04:54:40.548Z,7.70
2022-09-06T04:57:07.722Z,7.10
2022-09-06T04:59:34.818Z,6.90
2022-09-06T05:02:02.065Z,6.85
2022-09-06T05:04:29.065Z,6.38
2022-09-06T05:07:08.224Z,6.32
2022-09-06T05:09:36.930Z,6.18
2022-09-06T05:12:04.243Z,6.95
2022-09-06T05:14:31.270Z,7.35
2022-09-06T05:16:58.439Z,7.55
2022-09-06T05:19:25.483Z,7.57
2022-09-06T05:21:52.910Z,9.23
2022-09-06T05:24:19.974Z,8.73
2022-09-06T05:26:46.940Z,10.18
2022-09-06T05:29:13.901Z,7.70
2022-09-06T05:31:40.970Z,8.73
2022-09-06T05:34:07.994Z,9.43
2022-09-06T05:36:35.687Z,8.85
2022-09-06T05:39:02.657Z,7.95
2022-09-06T05:41:29.686Z,9.13
2022-09-06T05:43:56.880Z,8.23
2022-09-06T05:46:23.902Z,7.75
2022-09-06T05:49:04.783Z,8.15
2022-09-06T05:51:32.906Z,8.38
2022-09-06T05:54:00.322Z,8.23
2022-09-06T05:56:27.338Z,8.68
2022-09-06T05:58:54.297Z,8.00
2022-09-06T06:01:26.927Z,7.82
2022-09-06T06:03:57.620Z,6.93
2022-09-06T06:06:26.094Z,7.43
2022-09-06T06:08:53.403Z,6.10
2022-09-06T06:11:20.833Z,4.55
2022-09-06T06:13:47.802Z,4.13
2022-09-06T06:16:17.051Z,3.53
2022-09-06T06:18:51.709Z,1.90
2022-09-06T06:21:22.210Z,2.45
2022-09-06T06:23:58.342Z,1.40
2022-09-06T06:26:26.377Z,0.85
2022-09-06T06:28:54.077Z,1.65
2022-09-06T06:31:24.250Z,1.83
2022-09-06T06:33:51.409Z,1.00
2022-09-06T06:36:24.542Z,0.80
2022-09-06T06:38:56.119Z,0.90
2022-09-06T06:41:25.499Z,0.60
2022-09-06T06:43:57.082Z,0.95
2022-09-06T06:46:26.166Z,1.00
2022-09-06T06:48:55.326Z,0.98
2022-09-06T06:51:31.276Z,1.02
2022-09-06T06:53:58.744Z,0.77
2022-09-06T06:56:31.924Z,1.35
2022-09-06T06:59:01.428Z,0.75
2022-09-06T07:01:31.421Z,0.68
2022-09-06T07:03:59.054Z,0.60
2022-09-06T07:09:18.955Z,1.10
2022-09-06T07:11:48.836Z,0.60
2022-09-06T07:14:16.945Z,0.65
2022-09-06T07:16:44.529Z,0.70
2022-09-06T07:22:02.763Z,0.63
2022-09-06T07:24:32.164Z,0.60
2022-09-06T07:29:46.085Z,0.73
2022-09-06T07:32:13.345Z,0.90
2022-09-06T07:34:40.375Z,1.13
2022-09-06T07:37:07.574Z,0.52
2022-09-06T07:39:36.203Z,0.70
2022-09-06T07:42:03.811Z,1.00
2022-09-06T07:44:30.756Z,0.75
2022-09-06T07:55:18.853Z,0.77
2022-09-06T07:57:45.813Z,0.80
2022-09-06T08:00:12.994Z,1.15
2022-09-06T08:02:41.038Z,0.60
2022-09-06T08:10:42.505Z,0.95
2022-09-06T08:13:09.493Z,1.15
2022-09-06T08:15:36.406Z,1.00
2022-09-06T08:18:03.386Z,0.70
2022-09-06T08:20:30.503Z,0.70
2022-09-06T08:22:57.566Z,0.77
2022-09-06T08:25:25.849Z,0.60
2022-09-06T08:27:52.823Z,0.90
2022-09-06T08:30:19.841Z,0.63
2022-09-06T08:32:46.763Z,0.85
2022-09-06T08:35:13.957Z,0.95
2022-09-06T08:37:40.897Z,0.70
2022-09-06T08:40:08.613Z,0.60
2022-09-06T08:42:41.883Z,0.60
2022-09-06T08:45:12.639Z,1.30
2022-09-06T08:47:39.800Z,0.88
2022-09-06T08:50:08.742Z,1.17
2022-09-06T08:53:15.722Z,1.10
2022-09-06T08:56:13.390Z,1.00
2022-09-06T08:59:05.134Z,0.57
2022-09-06T09:02:15.010Z,0.75
2022-09-06T09:04:56.255Z,0.80
2022-09-06T09:07:41.686Z,0.90
2022-09-06T09:10:32.714Z,0.85
2022-09-06T09:13:03.992Z,0.75
2022-09-06T09:15:31.210Z,0.60
2022-09-06T09:18:00.396Z,1.05
2022-09-06T09:20:27.895Z,0.60
2022-09-06T09:22:55.907Z,0.82
2022-09-06T09:25:24.110Z,0.55
2022-09-06T09:27:59.624Z,0.98
2022-09-06T09:33:22.796Z,0.70
2022-09-06T09:35:50.433Z,1.05
2022-09-06T09:38:24.561Z,0.70
2022-09-06T09:41:01.839Z,1.08
2022-09-06T09:43:32.729Z,0.90
2022-09-06T09:46:28.903Z,0.60
2022-09-06T09:49:09.969Z,1.38
2022-09-06T09:52:04.164Z,0.70
2022-09-06T09:54:33.385Z,0.77
2022-09-06T09:57:00.385Z,1.05
2022-09-06T09:59:46.810Z,1.08
2022-09-06T10:02:25.937Z,1.00
2022-09-06T10:05:00.613Z,1.10
2022-09-06T10:07:28.200Z,1.00
2022-09-06T10:10:13.765Z,1.45
2022-09-06T10:12:42.692Z,1.02
2022-09-06T10:15:12.852Z,1.30
2022-09-06T10:17:51.209Z,1.08
2022-09-06T10:20:19.106Z,1.00
2022-09-06T10:26:23.942Z,1.10
2022-09-06T10:28:59.505Z,0.60
2022-09-06T10:31:36.743Z,0.93
2022-09-06T10:34:18.653Z,0.85
2022-09-06T10:36:59.329Z,1.05
2022-09-06T10:39:55.185Z,0.90
2022-09-06T10:42:39.982Z,1.17
2022-09-06T10:45:39.204Z,1.20
2022-09-06T10:48:14.880Z,1.00
2022-09-06T10:50:51.275Z,1.20
2022-09-06T10:53:40.128Z,0.68
2022-09-06T10:56:10.415Z,1.23
2022-09-06T11:01:58.011Z,0.82
2022-09-06T11:04:32.419Z,0.80
2022-09-06T11:07:02.658Z,0.90
2022-09-06T11:09:43.889Z,0.75
2022-09-06T11:12:19.612Z,0.75
2022-09-06T11:14:47.937Z,0.68
2022-09-06T11:17:26.865Z,0.90
2022-09-06T11:20:02.683Z,0.65
2022-09-06T11:22:51.175Z,0.93
2022-09-06T11:25:42.887Z,1.23
2022-09-06T11:28:18.890Z,0.60
2022-09-06T11:30:49.186Z,0.80
2022-09-06T11:33:28.376Z,1.10
2022-09-06T11:36:20.515Z,1.00
2022-09-06T11:39:02.431Z,0.80
2022-09-06T11:41:33.405Z,0.60
2022-09-06T11:44:01.193Z,0.75
2022-09-06T11:46:34.056Z,0.90
2022-09-06T11:49:03.451Z,0.50
2022-09-06T11:51:39.391Z,1.35
2022-09-06T11:54:15.305Z,0.60
2022-09-06T11:56:48.294Z,0.80
2022-09-06T11:59:19.097Z,0.93
2022-09-06T12:02:03.202Z,1.13
2022-09-06T12:05:07.550Z,1.02
2022-09-06T12:07:36.808Z,1.30
2022-09-06T12:10:31.387Z,0.82
2022-09-06T12:12:58.915Z,0.90
2022-09-06T12:15:55.411Z,0.60
2022-09-06T12:18:43.799Z,0.60
2022-09-06T12:21:31.217Z,1.00
2022-09-06T12:23:58.561Z,0.85
2022-09-06T12:26:54.480Z,0.80
2022-09-06T12:29:27.012Z,0.82
2022-09-06T12:31:58.563Z,1.00
2022-09-06T12:34:29.195Z,0.65
2022-09-06T12:37:00.350Z,0.52
2022-09-06T12:39:27.972Z,0.80
2022-09-06T12:42:05.057Z,1.10
2022-09-06T12:44:39.063Z,0.90
2022-09-06T12:47:23.863Z,0.77
2022-09-06T12:50:15.327Z,1.27
2022-09-06T12:52:58.029Z,0.70
2022-09-06T12:55:27.300Z,0.70
2022-09-06T12:57:56.874Z,1.40
2022-09-06T13:00:26.697Z,1.50
2022-09-06T13:03:30.972Z,0.77
2022-09-06T13:06:00.814Z,1.20
2022-09-06T13:08:44.687Z,0.60
2022-09-06T13:11:14.876Z,0.65
2022-09-06T13:13:51.284Z,0.93
2022-09-06T13:16:32.046Z,0.80
2022-09-06T13:19:15.810Z,1.08
2022-09-06T13:21:44.678Z,0.98
2022-09-06T13:24:25.163Z,0.70
2022-09-06T13:26:53.254Z,1.05
2022-09-06T13:29:25.307Z,0.60
2022-09-06T13:31:55.041Z,0.73
2022-09-06T13:34:31.666Z,0.80
2022-09-06T13:37:08.128Z,0.63
2022-09-06T13:39:38.032Z,0.60
2022-09-06T13:42:10.748Z,0.90
2022-09-06T13:44:39.538Z,1.02
2022-09-06T13:47:06.744Z,0.93
2022-09-06T13:49:34.153Z,1.13
2022-09-06T13:52:03.903Z,0.90
2022-09-06T13:54:32.398Z,0.90
2022-09-06T13:57:01.792Z,0.90
2022-09-06T13:59:30.421Z,0.70
2022-09-06T14:02:03.909Z,1.00
2022-09-06T14:04:32.695Z,1.00
2022-09-06T14:06:59.927Z,1.02
2022-09-06T14:09:26.936Z,0.77
2022-09-06T14:11:54.043Z,0.75
2022-09-06T14:14:21.180Z,1.58
2022-09-06T14:16:48.251Z,1.02
2022-09-06T14:19:15.751Z,0.80
2022-09-06T14:21:43.425Z,0.90
2022-09-06T14:24:10.427Z,0.93
2022-09-06T14:26:38.778Z,0.90
2022-09-06T14:29:06.350Z,0.80
2022-09-06T14:31:33.347Z,1.27
2022-09-06T14:34:02.095Z,1.25
2022-09-06T14:36:30.567Z,1.17
2022-09-06T14:38:59.808Z,1.13
2022-09-06T14:41:27.707Z,1.48
2022-09-06T14:43:57.464Z,0.93
2022-09-06T14:46:25.956Z,1.10
2022-09-06T14:49:03.214Z,1.00
2022-09-06T14:51:30.979Z,1.52
2022-09-06T14:54:03.533Z,0.40
2022-09-06T14:56:30.840Z,1.00
2022-09-06T14:59:00.115Z,0.90
2022-09-06T15:01:38.057Z,1.17
2022-09-06T15:04:08.618Z,0.75
2022-09-06T15:06:37.201Z,0.75
2022-09-06T15:09:06.061Z,0.90
2022-09-06T15:11:39.492Z,0.60
2022-09-06T15:14:12.378Z,0.80
2022-09-06T15:16:39.465Z,0.57
2022-09-06T15:19:07.947Z,1.00
2022-09-06T15:21:35.255Z,0.98
2022-09-06T15:24:03.397Z,0.80
2022-09-06T15:26:30.973Z,0.90
2022-09-06T15:28:57.913Z,0.75
2022-09-06T15:31:25.307Z,0.80
2022-09-06T15:33:52.925Z,0.90
2022-09-06T15:36:20.917Z,1.30
2022-09-06T15:38:49.806Z,1.02
2022-09-06T15:41:23.565Z,0.93
2022-09-06T15:43:53.618Z,1.10
2022-09-06T15:46:43.031Z,0.82
2022-09-06T15:49:12.640Z,1.13
2022-09-06T15:51:42.144Z,1.23
2022-09-06T15:54:11.227Z,1.30
2022-09-06T15:56:38.327Z,0.90
2022-09-06T15:59:05.737Z,0.98
2022-09-06T16:01:35.933Z,0.68
2022-09-06T16:04:06.060Z,1.10
2022-09-06T16:06:39.858Z,1.10
2022-09-06T16:09:10.214Z,1.00
2022-09-06T16:11:37.520Z,1.08
2022-09-06T16:14:07.109Z,0.93
2022-09-06T16:16:35.997Z,0.85
2022-09-06T16:19:03.198Z,1.05
2022-09-06T16:21:32.448Z,0.95
2022-09-06T16:24:02.445Z,1.10
2022-09-06T16:26:38.348Z,1.15
2022-09-06T16:29:07.217Z,1.10
2022-09-06T16:31:39.330Z,0.70
2022-09-06T16:34:07.885Z,0.93
2022-09-06T16:36:35.041Z,0.95
2022-09-06T16:39:02.254Z,1.10
2022-09-06T16:41:33.346Z,1.00
2022-09-06T16:44:00.343Z,1.10
2022-09-06T16:46:28.994Z,1.55
2022-09-06T16:49:00.169Z,1.10
2022-09-06T16:51:28.061Z,1.20
2022-09-06T16:53:56.024Z,1.45
2022-09-06T16:56:25.698Z,1.48
2022-09-06T16:58:57.717Z,1.67
2022-09-06T17:01:26.775Z,1.63
2022-09-06T17:03:54.130Z,1.52
2022-09-06T17:06:22.106Z,1.60
2022-09-06T17:08:49.080Z,1.45
2022-09-06T17:11:18.584Z,1.70
2022-09-06T17:13:47.580Z,1.45
2022-09-06T17:16:33.765Z,1.50
2022-09-06T17:19:01.483Z,2.25
2022-09-06T17:21:29.858Z,1.50
2022-09-06T17:24:04.729Z,1.80
2022-09-06T17:28:59.597Z,2.28
2022-09-06T17:31:27.359Z,2.47
2022-09-06T17:33:54.386Z,2.28
2022-09-06T17:36:24.028Z,2.42
2022-09-06T17:38:53.523Z,2.85
2022-09-06T17:41:43.184Z,2.20
2022-09-06T17:44:11.874Z,1.98
2022-09-06T17:46:51.928Z,2.17
2022-09-06T17:51:52.281Z,2.17
2022-09-06T17:54:19.462Z,1.85
2022-09-06T17:56:46.453Z,2.33
2022-09-06T17:59:15.561Z,2.20
2022-09-06T18:01:45.536Z,2.35
2022-09-06T18:04:14.654Z,2.38
2022-09-06T18:06:43.274Z,2.22
2022-09-06T18:09:14.783Z,2.22
2022-09-06T18:11:45.691Z,1.73
2022-09-06T18:14:19.033Z,4.25
2022-09-06T18:16:49.285Z,2.63
2022-09-06T18:19:17.950Z,3.05
2022-09-06T18:21:45.836Z,3.83
2022-09-06T18:24:14.093Z,2.35
2022-09-06T18:26:42.088Z,2.35
2022-09-06T18:29:13.353Z,2.35
2022-09-06T18:31:41.557Z,2.33
2022-09-06T18:34:09.601Z,2.50
2022-09-06T18:36:38.074Z,2.65
2022-09-06T18:39:05.729Z,3.42
2022-09-06T18:41:52.296Z,2.72
2022-09-06T18:44:19.910Z,2.38
2022-09-06T18:46:48.460Z,4.22
2022-09-06T18:49:16.789Z,3.30
2022-09-06T18:51:45.001Z,3.28
2022-09-06T18:54:12.441Z,2.75
2022-09-06T18:56:39.873Z,3.60
2022-09-06T18:59:07.801Z,3.38
2022-09-06T19:01:35.438Z,3.80
2022-09-06T19:04:04.321Z,3.20
2022-09-06T19:06:33.481Z,3.60
2022-09-06T19:09:02.809Z,3.70
2022-09-06T19:11:30.339Z,3.60
2022-09-06T19:13:58.194Z,4.55
2022-09-06T19:16:27.246Z,4.05
2022-09-06T19:18:56.433Z,2.92
2022-09-06T19:21:28.279Z,2.65
2022-09-06T19:24:03.951Z,2.63
2022-09-06T19:26:34.604Z,2.55
2022-09-06T19:29:04.208Z,2.17
2022-09-06T19:31:34.516Z,2.42
2022-09-06T19:34:02.835Z,2.58
2022-09-06T19:36:30.587Z,2.85
2022-09-06T19:39:04.304Z,2.08
2022-09-06T19:41:38.057Z,2.38
2022-09-06T19:44:08.819Z,3.80
2022-09-06T19:46:37.463Z,4.05
2022-09-06T19:49:08.317Z,2.72
2022-09-06T19:51:36.672Z,2.67
2022-09-06T19:54:04.155Z,4.95
2022-09-06T19:56:35.962Z,2.63
2022-09-06T19:59:08.729Z,2.15
2022-09-06T20:01:37.902Z,2.17
2022-09-06T20:04:07.480Z,1.85
2022-09-06T20:06:35.605Z,1.80
2022-09-06T20:09:05.356Z,2.22
2022-09-06T20:11:34.471Z,2.58
2022-09-06T20:14:01.738Z,2.08
2022-09-06T20:16:30.657Z,2.20
2022-09-06T20:19:02.120Z,2.40
2022-09-06T20:21:30.082Z,1.95
2022-09-06T20:23:59.177Z,2.40
2022-09-06T20:26:28.714Z,1.98
2022-09-06T20:29:00.377Z,2.28
2022-09-06T20:31:29.095Z,2.65
2022-09-06T20:33:56.889Z,2.45
2022-09-06T20:36:23.929Z,2.30
2022-09-06T20:38:51.279Z,2.15
2022-09-06T20:41:20.910Z,2.05
2022-09-06T20:43:52.773Z,2.38
2022-09-06T20:46:22.217Z,2.20
2022-09-06T20:48:49.283Z,2.30
2022-09-06T20:51:19.493Z,2.40
2022-09-06T20:53:51.357Z,2.60
2022-09-06T20:56:21.699Z,2.20
2022-09-06T20:58:54.134Z,2.80
2022-09-06T21:01:24.109Z,2.30
2022-09-06T21:03:54.151Z,2.63
2022-09-06T21:06:22.599Z,2.22
2022-09-06T21:08:50.185Z,2.17
2022-09-06T21:11:17.891Z,3.40
2022-09-06T21:13:49.828Z,2.38
2022-09-06T21:16:21.811Z,2.78
2022-09-06T21:18:59.939Z,2.50
2022-09-06T21:21:29.047Z,2.80
2022-09-06T21:23:56.412Z,3.05
2022-09-06T21:26:23.888Z,2.92
2022-09-06T21:28:53.428Z,4.15
2022-09-06T21:31:23.056Z,2.65
2022-09-06T21:33:55.675Z,2.38
2022-09-06T21:36:30.115Z,2.70
2022-09-06T21:38:59.709Z,2.78
2022-09-06T21:41:27.784Z,3.05
2022-09-06T21:44:00.124Z,2.40
2022-09-06T21:46:32.887Z,2.10
2022-09-06T21:49:04.070Z,2.53
2022-09-06T21:51:31.957Z,2.92
2022-09-06T21:53:59.397Z,2.88
2022-09-06T21:56:26.762Z,2.40
2022-09-06T21:58:56.134Z,2.35
2022-09-06T22:01:24.551Z,3.15
2022-09-06T22:03:52.042Z,2.42
2022-09-06T22:06:21.951Z,2.88
2022-09-06T22:08:49.457Z,3.25
2022-09-06T22:11:19.467Z,2.80
2022-09-06T22:13:47.706Z,2.75
2022-09-06T22:16:16.601Z,2.92
2022-09-06T22:18:45.016Z,2.97
2022-09-06T22:21:21.140Z,2.65
2022-09-06T22:23:51.829Z,2.40
2022-09-06T22:26:19.634Z,2.75
2022-09-06T22:28:46.845Z,2.85
2022-09-06T22:31:14.201Z,2.78
2022-09-06T22:33:41.181Z,3.00
2022-09-06T22:36:08.414Z,2.67
2022-09-06T22:38:35.404Z,3.03
2022-09-06T22:41:02.544Z,2.63
2022-09-06T22:43:29.515Z,2.72
2022-09-06T22:46:08.011Z,2.67
2022-09-06T22:48:35.906Z,2.42
2022-09-06T22:51:04.201Z,2.30
2022-09-06T22:53:31.684Z,2.40
2022-09-06T22:55:58.983Z,2.47
2022-09-06T22:58:29.211Z,2.50
2022-09-06T23:00:57.002Z,2.78
2022-09-06T23:03:24.055Z,2.80
2022-09-06T23:05:51.132Z,3.85
2022-09-06T23:08:18.157Z,2.90
2022-09-06T23:10:45.154Z,2.42
2022-09-06T23:13:12.149Z,3.05
2022-09-06T23:15:46.466Z,3.10
2022-09-06T23:18:14.594Z,2.05
2022-09-06T23:20:42.006Z,2.55
2022-09-06T23:23:09.018Z,2.40
2022-09-06T23:25:39.546Z,2.03
2022-09-06T23:28:07.077Z,2.70
2022-09-06T23:30:37.848Z,1.90
2022-09-06T23:33:05.082Z,2.65
2022-09-06T23:35:32.139Z,2.25
2022-09-06T23:37:59.171Z,2.65
2022-09-06T23:40:26.135Z,2.55
2022-09-06T23:42:53.087Z,2.22
2022-09-06T23:45:20.167Z,2.83
2022-09-06T23:47:47.148Z,2.33
2022-09-06T23:50:14.289Z,1.85
2022-09-06T23:52:41.290Z,1.92
2022-09-06T23:55:09.475Z,2.13
2022-09-06T23:57:36.710Z,2.30
